createdAt,value
2023-01-28T00:01:19.980Z,-3.89
2023-01-28T00:04:23.000Z,-3.88
2023-01-28T00:07:24.921Z,-3.82
2023-01-28T00:10:26.366Z,-3.80
2023-01-28T00:13:27.964Z,-3.79
2023-01-28T00:16:33.102Z,-3.80
2023-01-28T00:19:36.011Z,-3.77
2023-01-28T00:22:37.999Z,-3.80
2023-01-28T00:25:38.038Z,-3.82
2023-01-28T00:28:38.472Z,-3.84
2023-01-28T00:31:42.529Z,-3.83
2023-01-28T00:34:43.008Z,-3.83
2023-01-28T00:37:45.100Z,-3.78
2023-01-28T00:40:47.072Z,-3.77
2023-01-28T00:43:49.037Z,-3.71
2023-01-28T00:46:50.033Z,-3.67
2023-01-28T00:49:51.045Z,-3.64
2023-01-28T00:52:51.150Z,-3.62
2023-01-28T00:55:53.067Z,-3.63
2023-01-28T00:58:54.058Z,-3.66
2023-01-28T01:01:55.097Z,-3.68
2023-01-28T01:05:06.178Z,-3.72
2023-01-28T01:08:07.109Z,-3.80
2023-01-28T01:11:12.043Z,-3.80
2023-01-28T01:14:13.142Z,-3.73
2023-01-28T01:17:13.069Z,-3.68
2023-01-28T01:20:13.091Z,-3.63
2023-01-28T01:23:15.570Z,-3.61
2023-01-28T01:26:19.087Z,-3.61
2023-01-28T01:29:12.183Z,-3.60
2023-01-28T01:32:14.333Z,-3.56
2023-01-28T01:35:23.156Z,-3.48
2023-01-28T01:38:24.114Z,-3.45
2023-01-28T01:41:35.103Z,-3.45
2023-01-28T01:45:03.501Z,-3.42
2023-01-28T01:48:13.137Z,-3.41
2023-01-28T01:51:21.136Z,-3.45
2023-01-28T01:54:22.198Z,-3.47
2023-01-28T01:57:25.598Z,-3.46
2023-01-28T02:00:26.484Z,-3.41
2023-01-28T02:03:27.230Z,-3.41
2023-01-28T02:06:27.151Z,-3.42
2023-01-28T02:09:43.186Z,-3.47
2023-01-28T02:12:47.174Z,-3.52
2023-01-28T02:15:57.792Z,-3.49
2023-01-28T02:19:00.146Z,-3.48
2023-01-28T02:22:14.221Z,-3.47
2023-01-28T02:25:18.811Z,-3.46
2023-01-28T02:28:34.178Z,-3.46
2023-01-28T02:31:43.469Z,-3.47
2023-01-28T02:35:01.206Z,-3.51
2023-01-28T02:38:07.178Z,-3.51
2023-01-28T02:41:13.324Z,-3.48
2023-01-28T02:44:16.208Z,-3.49
2023-01-28T02:47:34.208Z,-3.52
2023-01-28T02:50:41.934Z,-3.51
2023-01-28T02:54:05.317Z,-3.50
2023-01-28T02:57:40.497Z,-3.51
2023-01-28T03:00:47.283Z,-3.54
2023-01-28T03:03:52.290Z,-3.59
2023-01-28T03:06:58.389Z,-3.62
2023-01-28T03:10:00.261Z,-3.67
2023-01-28T03:13:24.314Z,-3.70
2023-01-28T03:16:46.274Z,-3.70
2023-01-28T03:20:04.513Z,-3.65
2023-01-28T03:23:23.304Z,-3.64
2023-01-28T03:26:45.825Z,-3.61
2023-01-28T03:30:05.437Z,-3.59
2023-01-28T03:33:23.700Z,-3.60
2023-01-28T03:36:41.289Z,-3.60
2023-01-28T03:40:00.295Z,-3.55
2023-01-28T03:43:00.511Z,-3.55
2023-01-28T03:46:02.409Z,-3.59
2023-01-28T03:49:02.293Z,-3.57
2023-01-28T03:52:04.836Z,-3.57
2023-01-28T03:55:12.583Z,-3.54
2023-01-28T03:58:14.673Z,-3.50
2023-01-28T04:01:14.645Z,-3.49
2023-01-28T04:04:29.596Z,-3.51
2023-01-28T04:07:30.369Z,-3.52
2023-01-28T04:10:42.329Z,-3.48
2023-01-28T04:13:53.414Z,-3.46
2023-01-28T04:17:01.450Z,-3.41
2023-01-28T04:20:04.374Z,-3.44
2023-01-28T04:23:07.371Z,-3.48
2023-01-28T04:26:07.347Z,-3.49
2023-01-28T04:29:10.403Z,-3.51
2023-01-28T04:32:15.381Z,-3.49
2023-01-28T04:35:36.404Z,-3.48
2023-01-28T04:39:02.436Z,-3.48
2023-01-28T04:42:02.599Z,-3.50
2023-01-28T04:45:22.413Z,-3.52
2023-01-28T04:48:47.465Z,-3.53
2023-01-28T04:52:13.554Z,-3.52
2023-01-28T04:55:35.452Z,-3.49
2023-01-28T04:58:38.853Z,-3.50
2023-01-28T05:01:44.660Z,-3.51
2023-01-28T05:04:45.439Z,-3.46
2023-01-28T05:08:13.429Z,-3.46
2023-01-28T05:11:15.864Z,-3.45
2023-01-28T05:14:20.655Z,-3.47
2023-01-28T05:17:33.532Z,-3.49
2023-01-28T05:20:33.475Z,-3.52
2023-01-28T05:23:35.547Z,-3.50
2023-01-28T05:26:38.372Z,-3.49
2023-01-28T05:29:48.018Z,-3.48
2023-01-28T05:32:52.075Z,-3.46
2023-01-28T05:35:57.480Z,-3.48
2023-01-28T05:39:04.278Z,-3.47
2023-01-28T05:42:05.843Z,-3.45
2023-01-28T05:45:12.181Z,-3.49
2023-01-28T05:48:37.858Z,-3.51
2023-01-28T05:51:54.746Z,-3.50
2023-01-28T05:54:58.748Z,-3.49
2023-01-28T05:58:03.675Z,-3.49
2023-01-28T06:01:09.182Z,-3.47
2023-01-28T06:04:15.716Z,-3.48
2023-01-28T06:07:16.456Z,-3.52
2023-01-28T06:10:17.895Z,-3.55
2023-01-28T06:13:22.567Z,-3.54
2023-01-28T06:16:42.574Z,-3.54
2023-01-28T06:19:54.558Z,-3.51
2023-01-28T06:22:58.667Z,-3.51
2023-01-28T06:25:59.557Z,-3.53
2023-01-28T06:29:00.632Z,-3.62
2023-01-28T06:32:00.655Z,-3.73
2023-01-28T06:35:04.598Z,-3.78
2023-01-28T06:38:05.617Z,-3.78
2023-01-28T06:41:06.822Z,-3.77
2023-01-28T06:44:16.637Z,-3.80
2023-01-28T06:47:16.636Z,-3.81
2023-01-28T06:50:17.853Z,-3.83
2023-01-28T06:53:20.584Z,-3.87
2023-01-28T06:56:21.633Z,-3.91
2023-01-28T06:59:22.621Z,-3.99
2023-01-28T07:02:25.360Z,-4.03
2023-01-28T07:05:27.653Z,-4.04
2023-01-28T07:08:28.060Z,-4.03
2023-01-28T07:11:28.622Z,-4.03
2023-01-28T07:14:30.752Z,-4.01
2023-01-28T07:17:34.697Z,-4.04
2023-01-28T07:20:34.697Z,-4.03
2023-01-28T07:23:35.773Z,-4.00
2023-01-28T07:26:35.767Z,-4.03
2023-01-28T07:29:37.651Z,-4.04
2023-01-28T07:32:38.779Z,-4.05
2023-01-28T07:35:39.731Z,-4.02
2023-01-28T07:38:39.689Z,-4.03
2023-01-28T07:41:42.180Z,-4.03
2023-01-28T07:45:02.710Z,-4.08
2023-01-28T07:48:08.731Z,-4.12
2023-01-28T07:51:11.950Z,-4.08
2023-01-28T07:54:12.720Z,-4.03
2023-01-28T07:57:12.846Z,-4.07
2023-01-28T08:00:14.035Z,-4.16
2023-01-28T08:03:28.866Z,-4.15
2023-01-28T08:06:28.749Z,-4.21
2023-01-28T08:09:29.757Z,-4.29
2023-01-28T08:12:30.950Z,-4.35
2023-01-28T08:15:32.816Z,-4.37
2023-01-28T08:18:34.894Z,-4.37
2023-01-28T08:21:35.870Z,-4.32
2023-01-28T08:24:35.909Z,-4.21
2023-01-28T08:27:35.846Z,-4.13
2023-01-28T08:30:35.951Z,-4.06
2023-01-28T08:33:35.896Z,-4.03
2023-01-28T08:36:35.848Z,-4.13
2023-01-28T08:39:35.858Z,-4.29
2023-01-28T08:42:39.998Z,-4.38
2023-01-28T08:45:42.893Z,-4.39
2023-01-28T08:48:45.100Z,-4.39
2023-01-28T08:51:45.867Z,-4.38
2023-01-28T08:54:50.296Z,-4.41
2023-01-28T08:57:53.897Z,-4.40
2023-01-28T09:01:01.081Z,-4.37
2023-01-28T09:04:02.069Z,-4.32
2023-01-28T09:07:07.146Z,-4.19
2023-01-28T09:10:11.921Z,-4.01
2023-01-28T09:13:19.087Z,-3.84
2023-01-28T09:16:20.005Z,-3.78
2023-01-28T09:19:22.319Z,-3.81
2023-01-28T09:22:24.964Z,-3.89
2023-01-28T09:25:24.990Z,-3.97
2023-01-28T09:28:25.921Z,-4.06
2023-01-28T09:31:28.095Z,-4.02
2023-01-28T09:34:31.219Z,-3.94
2023-01-28T09:37:31.106Z,-3.95
2023-01-28T09:40:33.948Z,-3.91
2023-01-28T09:43:39.019Z,-3.90
2023-01-28T09:46:45.074Z,-3.93
2023-01-28T09:49:59.040Z,-3.92
2023-01-28T09:52:59.011Z,-3.81
2023-01-28T09:56:03.968Z,-3.71
2023-01-28T09:59:10.791Z,-3.59
2023-01-28T10:02:43.019Z,-3.45
2023-01-28T10:05:54.043Z,-3.37
2023-01-28T10:09:19.033Z,-3.31
2023-01-28T10:12:25.251Z,-3.23
2023-01-28T10:15:38.035Z,-3.20
2023-01-28T10:19:05.154Z,-3.11
2023-01-28T10:22:29.083Z,-3.02
2023-01-28T10:25:34.023Z,-2.88
2023-01-28T10:28:42.072Z,-2.82
2023-01-28T10:31:47.113Z,-2.83
2023-01-28T10:34:51.249Z,-2.85
2023-01-28T10:37:52.711Z,-2.81
2023-01-28T10:40:56.038Z,-2.70
2023-01-28T10:43:58.797Z,-2.58
2023-01-28T10:46:59.058Z,-2.38
2023-01-28T10:50:02.070Z,-2.17
2023-01-28T10:53:09.179Z,-1.86
2023-01-28T10:56:12.136Z,-1.58
2023-01-28T10:59:20.233Z,-1.40
2023-01-28T11:02:38.171Z,-1.38
2023-01-28T11:05:43.110Z,-0.99
2023-01-28T11:08:44.103Z,-0.16
2023-01-28T11:11:44.107Z,0.86
2023-01-28T11:14:47.320Z,1.93
2023-01-28T11:17:48.195Z,2.97
2023-01-28T11:20:52.185Z,3.69
2023-01-28T11:23:59.571Z,4.43
2023-01-28T11:27:02.447Z,4.99
2023-01-28T11:30:08.336Z,4.97
2023-01-28T11:33:26.079Z,5.05
2023-01-28T11:36:29.147Z,4.90
2023-01-28T11:39:38.144Z,5.00
2023-01-28T11:42:38.241Z,5.32
2023-01-28T11:45:49.186Z,5.67
2023-01-28T11:49:15.172Z,5.94
2023-01-28T11:52:55.338Z,6.44
2023-01-28T11:56:19.184Z,6.86
2023-01-28T11:59:29.214Z,7.23
2023-01-28T12:02:43.351Z,7.53
2023-01-28T12:06:00.396Z,7.90
2023-01-28T12:09:20.988Z,7.90
2023-01-28T12:12:56.268Z,7.52
2023-01-28T12:16:40.274Z,7.28
2023-01-28T12:20:14.506Z,7.39
2023-01-28T12:23:43.711Z,7.43
2023-01-28T12:26:59.293Z,7.23
2023-01-28T12:30:19.248Z,7.11
2023-01-28T12:33:42.281Z,7.27
2023-01-28T12:37:18.255Z,7.22
2023-01-28T12:40:29.809Z,7.22
2023-01-28T12:44:03.323Z,7.16
2023-01-28T12:47:08.300Z,6.90
2023-01-28T12:50:18.694Z,6.95
2023-01-28T12:53:33.292Z,6.95
2023-01-28T12:56:37.320Z,7.00
2023-01-28T12:59:52.294Z,7.25
2023-01-28T13:02:59.379Z,7.23
2023-01-28T13:06:05.566Z,6.99
2023-01-28T13:09:09.365Z,6.82
2023-01-28T13:12:11.274Z,6.72
2023-01-28T13:15:17.701Z,6.55
2023-01-28T13:18:20.420Z,6.47
2023-01-28T13:21:27.837Z,6.31
2023-01-28T13:24:28.494Z,5.92
2023-01-28T13:27:35.376Z,5.65
2023-01-28T13:30:39.464Z,5.61
2023-01-28T13:33:51.425Z,5.69
2023-01-28T13:37:06.008Z,5.63
2023-01-28T13:40:16.515Z,5.54
2023-01-28T13:43:43.969Z,5.40
2023-01-28T13:46:53.772Z,5.22
2023-01-28T13:50:00.436Z,5.07
2023-01-28T13:53:49.516Z,4.93
2023-01-28T13:57:27.417Z,4.62
2023-01-28T14:00:49.573Z,4.29
2023-01-28T14:04:22.389Z,4.02
2023-01-28T14:07:44.334Z,3.69
2023-01-28T14:11:04.750Z,3.31
2023-01-28T14:14:37.379Z,2.95
2023-01-28T14:18:04.465Z,2.55
2023-01-28T14:21:16.986Z,2.19
2023-01-28T14:24:19.489Z,1.90
2023-01-28T14:27:29.412Z,1.63
2023-01-28T14:30:41.636Z,1.29
2023-01-28T14:33:42.427Z,0.96
2023-01-28T14:36:44.436Z,0.69
2023-01-28T14:39:47.442Z,0.46
2023-01-28T14:43:14.412Z,0.28
2023-01-28T14:46:45.515Z,0.11
2023-01-28T14:50:07.419Z,-0.11
2023-01-28T14:53:32.026Z,-0.24
2023-01-28T14:56:40.532Z,-0.35
2023-01-28T15:00:08.422Z,-0.45
2023-01-28T15:03:23.143Z,-0.54
2023-01-28T15:06:31.465Z,-0.64
2023-01-28T15:09:34.699Z,-0.74
2023-01-28T15:12:35.516Z,-0.82
2023-01-28T15:16:04.485Z,-0.92
2023-01-28T15:19:06.525Z,-1.01
2023-01-28T15:22:19.720Z,-1.07
2023-01-28T15:25:26.448Z,-1.13
2023-01-28T15:28:30.586Z,-1.22
2023-01-28T15:31:49.434Z,-1.34
2023-01-28T15:34:58.548Z,-1.43
2023-01-28T15:37:58.713Z,-1.48
2023-01-28T15:41:04.561Z,-1.52
2023-01-28T15:44:05.494Z,-1.59
2023-01-28T15:47:05.724Z,-1.64
2023-01-28T15:50:07.791Z,-1.68
2023-01-28T15:53:08.510Z,-1.74
2023-01-28T15:56:17.716Z,-1.80
2023-01-28T15:59:31.752Z,-1.83
2023-01-28T16:02:41.542Z,-1.87
2023-01-28T16:05:52.685Z,-1.93
2023-01-28T16:09:20.545Z,-1.97
2023-01-28T16:12:22.693Z,-2.02
2023-01-28T16:15:29.553Z,-2.05
2023-01-28T16:18:42.593Z,-2.07
2023-01-28T16:21:50.287Z,-2.09
2023-01-28T16:25:01.620Z,-2.11
2023-01-28T16:28:02.225Z,-2.13
2023-01-28T16:31:02.718Z,-2.16
2023-01-28T16:34:02.611Z,-2.19
2023-01-28T16:37:02.676Z,-2.21
2023-01-28T16:40:05.443Z,-2.22
2023-01-28T16:43:08.883Z,-2.25
2023-01-28T16:46:09.899Z,-2.28
2023-01-28T16:49:11.859Z,-2.29
2023-01-28T16:52:13.634Z,-2.29
2023-01-28T16:55:15.224Z,-2.33
2023-01-28T16:58:19.683Z,-2.37
2023-01-28T17:01:21.735Z,-2.37
2023-01-28T17:04:24.829Z,-2.37
2023-01-28T17:07:30.100Z,-2.36
2023-01-28T17:10:30.756Z,-2.33
2023-01-28T17:13:33.720Z,-2.31
2023-01-28T17:16:33.710Z,-2.34
2023-01-28T17:19:33.892Z,-2.35
2023-01-28T17:22:33.685Z,-2.35
2023-01-28T17:25:33.728Z,-2.37
2023-01-28T17:28:36.716Z,-2.39
2023-01-28T17:31:36.821Z,-2.41
2023-01-28T17:34:38.832Z,-2.42
2023-01-28T17:37:38.685Z,-2.42
2023-01-28T17:40:38.895Z,-2.44
2023-01-28T17:43:40.750Z,-2.47
2023-01-28T17:46:40.778Z,-2.50
2023-01-28T17:49:42.970Z,-2.54
2023-01-28T17:52:44.855Z,-2.56
2023-01-28T17:55:44.828Z,-2.60
2023-01-28T17:58:49.150Z,-2.62
2023-01-28T18:01:53.853Z,-2.61
2023-01-28T18:04:53.892Z,-2.61
2023-01-28T18:08:07.083Z,-2.61
2023-01-28T18:11:18.757Z,-2.63
2023-01-28T18:14:29.394Z,-2.66
2023-01-28T18:17:35.881Z,-2.69
2023-01-28T18:20:38.985Z,-2.73
2023-01-28T18:23:49.385Z,-2.76
2023-01-28T18:30:20.975Z,-2.78
2023-01-28T18:33:29.194Z,-2.78
2023-01-28T18:36:38.849Z,-2.77
2023-01-28T18:39:42.263Z,-2.75
2023-01-28T18:42:44.848Z,-2.73
2023-01-28T18:45:57.989Z,-2.71
2023-01-28T18:49:01.943Z,-2.65
2023-01-28T18:52:02.799Z,-2.58
2023-01-28T18:55:03.847Z,-2.47
2023-01-28T18:58:03.926Z,-2.38
2023-01-28T19:01:07.008Z,-2.33
2023-01-28T19:04:08.187Z,-2.28
2023-01-28T19:07:10.824Z,-2.20
2023-01-28T19:10:15.127Z,-2.10
2023-01-28T19:13:14.938Z,-2.05
2023-01-28T19:16:17.192Z,-2.03
2023-01-28T19:19:17.927Z,-2.04
2023-01-28T19:22:22.887Z,-2.02
2023-01-28T19:25:24.869Z,-2.03
2023-01-28T19:28:31.019Z,-2.06
2023-01-28T19:31:32.078Z,-2.07
2023-01-28T19:34:31.927Z,-2.06
2023-01-28T19:37:32.080Z,-2.06
2023-01-28T19:40:32.918Z,-2.05
2023-01-28T19:43:33.969Z,-2.07
2023-01-28T19:46:35.906Z,-2.07
2023-01-28T19:49:35.926Z,-2.09
2023-01-28T19:52:29.019Z,-2.10
2023-01-28T19:55:32.118Z,-2.11
2023-01-28T19:58:35.273Z,-2.13
2023-01-28T20:01:41.983Z,-2.20
2023-01-28T20:05:00.211Z,-2.27
2023-01-28T20:08:00.984Z,-2.34
2023-01-28T20:11:02.981Z,-2.37
2023-01-28T20:14:09.508Z,-2.40
2023-01-28T20:17:12.222Z,-2.42
2023-01-28T20:20:13.989Z,-2.43
2023-01-28T20:23:14.996Z,-2.43
2023-01-28T20:26:21.075Z,-2.41
2023-01-28T20:29:28.907Z,-2.43
2023-01-28T20:32:32.550Z,-2.47
2023-01-28T20:35:33.002Z,-2.57
2023-01-28T20:38:35.015Z,-2.67
2023-01-28T20:41:36.995Z,-2.76
2023-01-28T20:44:38.150Z,-2.84
2023-01-28T20:47:40.145Z,-2.93
2023-01-28T20:50:41.006Z,-3.00
2023-01-28T20:53:41.132Z,-3.05
2023-01-28T20:56:41.071Z,-3.11
2023-01-28T20:59:41.065Z,-3.16
2023-01-28T21:02:44.716Z,-3.19
2023-01-28T21:05:49.129Z,-3.23
2023-01-28T21:08:53.054Z,-3.28
2023-01-28T21:11:54.865Z,-3.31
2023-01-28T21:14:56.107Z,-3.34
2023-01-28T21:17:58.067Z,-3.37
2023-01-28T21:21:02.027Z,-3.42
2023-01-28T21:24:04.200Z,-3.51
2023-01-28T21:27:05.359Z,-3.64
2023-01-28T21:30:08.071Z,-3.73
2023-01-28T21:33:12.094Z,-3.78
2023-01-28T21:36:12.089Z,-3.81
2023-01-28T21:39:12.092Z,-3.83
2023-01-28T21:42:13.133Z,-3.84
2023-01-28T21:45:16.432Z,-3.87
2023-01-28T21:48:17.172Z,-3.90
2023-01-28T21:51:37.217Z,-3.93
2023-01-28T21:54:37.106Z,-4.01
2023-01-28T21:57:41.325Z,-4.05
2023-01-28T22:00:41.126Z,-4.07
2023-01-28T22:03:46.131Z,-4.11
2023-01-28T22:07:01.566Z,-4.15
2023-01-28T22:10:02.123Z,-4.16
2023-01-28T22:13:03.307Z,-4.19
2023-01-28T22:16:05.085Z,-4.20
2023-01-28T22:19:06.204Z,-4.18
2023-01-28T22:22:08.237Z,-4.20
2023-01-28T22:25:08.213Z,-4.19
2023-01-28T22:28:08.143Z,-4.21
2023-01-28T22:31:20.670Z,-4.23
2023-01-28T22:34:21.314Z,-4.25
2023-01-28T22:37:21.225Z,-4.24
2023-01-28T22:40:22.312Z,-4.23
2023-01-28T22:43:25.525Z,-4.25
2023-01-28T22:46:26.472Z,-4.26
2023-01-28T22:49:32.588Z,-4.27
2023-01-28T22:52:35.109Z,-4.26
2023-01-28T22:55:37.493Z,-4.24
2023-01-28T22:58:41.086Z,-4.23
2023-01-28T23:01:43.647Z,-4.23
2023-01-28T23:04:44.883Z,-4.23
2023-01-28T23:07:51.257Z,-4.24
2023-01-28T23:11:03.780Z,-4.23
2023-01-28T23:14:50.501Z,-4.26
2023-01-28T23:18:10.378Z,-4.30
2023-01-28T23:21:29.276Z,-4.33
2023-01-28T23:24:32.729Z,-4.37
2023-01-28T23:27:35.551Z,-4.39
2023-01-28T23:30:36.666Z,-4.40
2023-01-28T23:33:39.298Z,-4.41
2023-01-28T23:36:41.523Z,-4.43
2023-01-28T23:39:41.316Z,-4.46
2023-01-28T23:42:41.409Z,-4.48
2023-01-28T23:45:42.463Z,-4.49
2023-01-28T23:48:44.780Z,-4.50
2023-01-28T23:51:46.275Z,-4.52
2023-01-28T23:54:46.286Z,-4.51
2023-01-28T23:57:50.719Z,-4.53
